Terminal Aerodrome Forecast
Issued by NWS Amarillo, TX

Current Version | Previous Version | Text Only | Print | Product List | Glossary On
Versions: 1 2 3 4 5 6 7 8 9 10 11 12 13 14
000
FTUS44 KAMA 231344 AAA
TAFAMA
TAF AMD
KAMA 231344Z 2314/2412 16020G30KT P6SM OVC010
     FM231900 16020G31KT P6SM SCT100
     FM240600 16016G24KT P6SM BKN100 PROB30 2406/2410 5SM -TSRA
      OVC040CB=

USA.gov is the U.S. government's official web portal to all federal, state and local government web resources and services.